Time;durP1;ratioP1;P1;durP2;ratioP2;P2;SDS_P1;SDS_P2;PMS_P1;PMS_P2;Temp;Humidity;BMP_temperature;BMP_pressure;BME280_temperature;BME280_humidity;BME280_pressure;Samples;Min_cycle;Max_cycle;Signal;HPM_P1;HPM_P2
2023/05/24 00:03:38;;;;;;;5.45;1.33;;;19.20;60.50;;;;;;10449899;28;20096;-57
2023/05/24 00:08:38;;;;;;;4.93;1.88;;;19.20;60.50;;;;;;10412268;28;20036;-58
2023/05/24 00:13:39;;;;;;;4.97;2.22;;;19.20;60.40;;;;;;10412047;28;20104;-58
2023/05/24 00:18:40;;;;;;;3.83;1.60;;;19.20;60.30;;;;;;10432261;28;20132;-57
2023/05/24 00:23:42;;;;;;;5.05;1.90;;;19.20;60.30;;;;;;10452969;28;20024;-57
2023/05/24 00:28:43;;;;;;;4.00;1.80;;;19.20;60.20;;;;;;10450326;28;20039;-58
2023/05/24 00:33:44;;;;;;;4.18;1.77;;;19.10;60.10;;;;;;10425638;28;20487;-57
2023/05/24 00:38:45;;;;;;;2.75;1.20;;;19.10;60.00;;;;;;10456952;28;20103;-57
2023/05/24 00:43:45;;;;;;;5.32;1.65;;;19.10;60.00;;;;;;10450383;28;20021;-56
2023/05/24 00:48:48;;;;;;;4.15;1.30;;;19.10;60.00;;;;;;10451777;28;20388;-58
2023/05/24 00:53:49;;;;;;;4.40;1.77;;;19.10;59.90;;;;;;10450985;28;20017;-57
2023/05/24 00:58:53;;;;;;;4.43;1.83;;;19.10;59.90;;;;;;10451733;28;20017;-57
2023/05/24 01:03:56;;;;;;;4.10;1.23;;;19.00;59.80;;;;;;10422373;28;20029;-56
2023/05/24 01:09:43;;;;;;;3.03;1.40;;;19.10;59.70;;;;;;10409708;28;20061;-57
2023/05/24 01:15:04;;;;;;;4.35;2.03;;;19.00;59.70;;;;;;10409749;28;20045;-58
2023/05/24 01:20:09;;;;;;;2.90;1.10;;;19.00;59.60;;;;;;10428344;28;20330;-57
2023/05/24 01:25:56;;;;;;;5.85;2.08;;;19.00;59.70;;;;;;10449326;28;20557;-58
2023/05/24 01:30:58;;;;;;;7.60;1.73;;;19.00;59.50;;;;;;10420924;28;20041;-58
2023/05/24 01:35:59;;;;;;;3.72;1.48;;;19.00;59.40;;;;;;10426271;28;20115;-57
2023/05/24 01:41:41;;;;;;;5.55;2.05;;;18.90;59.30;;;;;;10449889;28;21130;-57
2023/05/24 01:46:45;;;;;;;2.58;1.23;;;19.00;59.40;;;;;;10448024;28;20045;-58
2023/05/24 01:52:06;;;;;;;4.35;1.75;;;19.00;59.30;;;;;;10448429;28;20021;-57
2023/05/24 01:57:09;;;;;;;3.15;1.10;;;18.90;59.50;;;;;;10447885;28;20384;-56
2023/05/24 02:02:11;;;;;;;3.58;1.52;;;18.90;59.10;;;;;;10447804;28;20024;-57
2023/05/24 02:07:12;;;;;;;3.25;1.50;;;18.90;59.10;;;;;;10447592;28;20029;-57
2023/05/24 02:12:12;;;;;;;3.45;1.60;;;18.90;59.10;;;;;;10448585;28;20735;-58
2023/05/24 02:17:13;;;;;;;6.28;1.80;;;18.90;59.10;;;;;;10448836;28;20071;-57
2023/05/24 02:22:14;;;;;;;3.85;1.50;;;18.90;59.00;;;;;;10448136;28;20059;-57
2023/05/24 02:27:14;;;;;;;2.95;1.63;;;18.80;58.90;;;;;;10447783;28;20028;-57
2023/05/24 02:32:15;;;;;;;4.00;2.10;;;18.80;58.90;;;;;;10447947;28;20155;-57
2023/05/24 02:37:16;;;;;;;1.73;1.10;;;18.80;58.80;;;;;;10448014;28;20040;-56
2023/05/24 02:42:17;;;;;;;3.70;1.10;;;18.80;58.80;;;;;;10447605;28;20025;-57
2023/05/24 02:47:18;;;;;;;2.42;1.42;;;18.80;58.80;;;;;;10447318;28;20147;-59
2023/05/24 02:52:20;;;;;;;3.10;1.55;;;18.80;58.70;;;;;;10446916;28;20021;-56
2023/05/24 02:57:21;;;;;;;1.95;1.10;;;18.80;58.80;;;;;;10447374;28;20479;-57
2023/05/24 03:02:22;;;;;;;4.03;2.00;;;18.80;58.80;;;;;;10447006;28;20056;-58
2023/05/24 03:07:22;;;;;;;2.92;1.35;;;18.70;58.70;;;;;;10445271;28;20120;-57
2023/05/24 03:12:23;;;;;;;2.22;1.20;;;18.70;58.70;;;;;;10446449;28;20099;-57
2023/05/24 03:17:24;;;;;;;3.00;1.30;;;18.70;58.70;;;;;;10445091;28;20049;-58
2023/05/24 03:22:25;;;;;;;3.65;1.45;;;18.70;58.70;;;;;;10442852;28;20021;-57
2023/05/24 03:27:25;;;;;;;3.78;1.42;;;18.70;58.60;;;;;;10445934;28;20473;-57
2023/05/24 03:32:26;;;;;;;3.35;1.20;;;18.70;58.60;;;;;;10432014;28;20025;-56
2023/05/24 03:37:27;;;;;;;2.88;1.48;;;18.60;58.70;;;;;;10435280;28;20037;-55
2023/05/24 03:42:28;;;;;;;4.47;1.48;;;18.60;58.70;;;;;;10436208;28;20566;-57
2023/05/24 03:47:28;;;;;;;4.60;1.77;;;18.70;60.40;;;;;;10440829;28;20033;-58
2023/05/24 03:52:29;;;;;;;3.92;1.08;;;18.80;59.60;;;;;;10440368;28;20446;-56
2023/05/24 03:57:30;;;;;;;5.43;2.03;;;18.80;61.30;;;;;;10433881;28;20029;-57
2023/05/24 04:02:31;;;;;;;3.05;1.38;;;18.90;60.40;;;;;;10432290;28;20112;-56
2023/05/24 04:07:32;;;;;;;3.42;1.45;;;18.80;59.50;;;;;;10400834;28;20046;-56
2023/05/24 04:12:34;;;;;;;3.67;1.70;;;18.80;59.50;;;;;;10401316;28;20009;-57
2023/05/24 04:17:35;;;;;;;3.25;1.65;;;18.70;59.50;;;;;;10400896;28;20049;-57
2023/05/24 04:22:35;;;;;;;3.20;1.60;;;18.70;59.50;;;;;;10441812;28;20451;-56
2023/05/24 04:27:36;;;;;;;5.25;1.83;;;18.70;59.40;;;;;;10447170;28;20033;-56
2023/05/24 04:32:39;;;;;;;3.17;1.40;;;18.70;59.60;;;;;;10448686;28;20075;-56
2023/05/24 04:37:40;;;;;;;4.75;2.17;;;18.60;59.50;;;;;;10451107;28;20021;-55
2023/05/24 04:42:40;;;;;;;5.97;1.60;;;18.60;59.50;;;;;;10450022;28;20495;-54
2023/05/24 04:47:41;;;;;;;4.47;1.50;;;18.60;59.60;;;;;;10449947;28;20033;-54
2023/05/24 04:52:42;;;;;;;2.72;1.33;;;18.60;59.60;;;;;;10449092;28;20055;-55
2023/05/24 04:57:43;;;;;;;6.55;2.40;;;18.60;59.80;;;;;;10449699;28;20421;-56
2023/05/24 05:02:43;;;;;;;5.28;2.00;;;18.60;60.30;;;;;;10445100;28;20112;-57
2023/05/24 05:07:44;;;;;;;5.13;2.03;;;18.70;60.80;;;;;;10450871;28;20032;-57
2023/05/24 05:12:45;;;;;;;8.48;2.80;;;18.80;61.60;;;;;;10450985;28;20013;-58
2023/05/24 05:17:45;;;;;;;7.32;2.30;;;18.80;62.10;;;;;;10450977;28;20053;-58
2023/05/24 05:22:50;;;;;;;19.67;3.15;;;18.90;62.00;;;;;;10437491;28;20104;-54
2023/05/24 05:27:50;;;;;;;11.75;3.47;;;18.90;62.20;;;;;;10450391;28;20048;-56
2023/05/24 05:32:51;;;;;;;12.25;3.58;;;18.90;62.40;;;;;;10450051;28;20044;-58
2023/05/24 05:37:52;;;;;;;8.85;3.38;;;18.90;62.70;;;;;;10450124;28;20056;-56
2023/05/24 05:42:52;;;;;;;9.05;2.40;;;18.90;62.20;;;;;;10449897;28;20376;-58
2023/05/24 05:47:53;;;;;;;20.10;3.83;;;18.90;62.40;;;;;;10449346;28;20469;-60
2023/05/24 05:52:53;;;;;;;20.52;3.75;;;18.90;62.20;;;;;;10444324;28;20032;-58
2023/05/24 05:57:54;;;;;;;17.48;3.50;;;18.90;62.40;;;;;;10445876;28;20067;-57
2023/05/24 06:02:55;;;;;;;14.88;4.50;;;18.90;62.10;;;;;;10449150;28;20045;-58
2023/05/24 06:07:55;;;;;;;23.52;4.65;;;18.80;62.20;;;;;;10448692;28;20719;-56
2023/05/24 06:12:56;;;;;;;13.25;3.13;;;18.80;62.10;;;;;;10446615;28;20048;-56
2023/05/24 06:17:57;;;;;;;11.80;3.40;;;18.80;62.20;;;;;;10445593;28;20048;-57
2023/05/24 06:22:57;;;;;;;11.85;3.72;;;18.70;62.30;;;;;;10443009;28;20049;-54
2023/05/24 06:27:58;;;;;;;9.32;2.50;;;18.60;62.20;;;;;;10442417;28;20475;-55
2023/05/24 06:32:59;;;;;;;9.90;2.75;;;18.60;62.20;;;;;;10441015;28;20100;-58
2023/05/24 06:38:00;;;;;;;11.13;3.58;;;18.60;62.30;;;;;;10443140;28;20059;-58
2023/05/24 06:43:01;;;;;;;12.85;3.25;;;18.70;62.30;;;;;;10442347;28;20591;-57
2023/05/24 06:48:02;;;;;;;8.40;2.65;;;18.70;62.30;;;;;;10441964;28;20071;-56
2023/05/24 06:53:02;;;;;;;10.98;3.17;;;18.70;63.00;;;;;;10444733;28;20021;-53
2023/05/24 06:58:04;;;;;;;8.65;3.80;;;18.70;62.30;;;;;;10444799;28;20106;-58
2023/05/24 07:03:04;;;;;;;7.75;2.20;;;18.70;62.50;;;;;;10444883;28;20395;-57
2023/05/24 07:08:05;;;;;;;8.15;2.28;;;18.70;62.60;;;;;;10442520;28;20116;-57
2023/05/24 07:13:06;;;;;;;8.93;3.17;;;18.60;62.60;;;;;;10444379;28;20025;-57
2023/05/24 07:18:07;;;;;;;12.02;2.80;;;18.60;62.60;;;;;;10442635;28;20227;-56
2023/05/24 07:23:09;;;;;;;7.20;3.47;;;18.60;62.60;;;;;;10443962;28;20057;-57
2023/05/24 07:28:10;;;;;;;8.77;2.47;;;18.60;62.60;;;;;;10440969;28;20109;-58
2023/05/24 07:33:11;;;;;;;6.55;2.88;;;18.70;63.10;;;;;;10404903;28;20471;-57
2023/05/24 07:38:11;;;;;;;6.32;2.85;;;18.70;62.70;;;;;;10432019;28;20033;-57
2023/05/24 07:43:12;;;;;;;4.97;2.72;;;18.60;62.10;;;;;;10405039;28;20021;-56
2023/05/24 07:48:13;;;;;;;9.00;2.75;;;18.60;62.20;;;;;;10404525;28;20183;-58
2023/05/24 07:53:18;;;;;;;7.47;2.95;;;18.60;62.70;;;;;;10404693;28;20053;-58
2023/05/24 07:58:18;;;;;;;7.03;3.08;;;18.70;62.80;;;;;;10405357;28;20025;-59
2023/05/24 08:03:19;;;;;;;9.43;3.10;;;18.70;63.20;;;;;;10449687;28;20466;-56
2023/05/24 08:08:20;;;;;;;9.68;3.17;;;18.70;63.30;;;;;;10423568;28;20033;-59
2023/05/24 08:13:20;;;;;;;10.57;3.40;;;18.70;63.20;;;;;;10410820;28;20024;-56
2023/05/24 08:18:21;;;;;;;17.45;9.15;;;18.70;63.10;;;;;;10415581;28;20044;-58
2023/05/24 08:23:22;;;;;;;19.25;8.57;;;18.70;63.10;;;;;;10453160;28;20029;-58
2023/05/24 08:28:22;;;;;;;15.63;7.55;;;18.70;62.60;;;;;;10452839;28;20166;-59
2023/05/24 08:33:23;;;;;;;14.55;5.03;;;18.60;61.50;;;;;;10452762;28;20550;-60
2023/05/24 08:38:24;;;;;;;9.05;5.90;;;18.60;62.00;;;;;;10449871;28;20112;-58
2023/05/24 08:43:25;;;;;;;11.13;5.72;;;18.70;62.10;;;;;;10449048;28;20105;-56
2023/05/24 08:48:27;;;;;;;13.82;6.35;;;18.70;61.40;;;;;;10445771;28;20573;-58
2023/05/24 08:53:31;;;;;;;10.15;5.38;;;18.70;62.00;;;;;;10437320;28;20460;-57
2023/05/24 08:58:32;;;;;;;11.25;4.45;;;18.70;61.60;;;;;;10420982;28;20399;-56
2023/05/24 09:03:35;;;;;;;6.82;3.40;;;18.70;61.00;;;;;;10449023;28;20048;-57
2023/05/24 09:08:37;;;;;;;11.27;4.43;;;18.80;60.50;;;;;;10440222;28;20021;-57
2023/05/24 09:13:38;;;;;;;10.73;5.35;;;18.90;61.80;;;;;;10444094;28;20468;-58
2023/05/24 09:18:41;;;;;;;8.88;4.68;;;19.10;60.70;;;;;;10434040;28;20139;-59
2023/05/24 09:23:42;;;;;;;10.07;4.72;;;19.20;60.40;;;;;;10450544;28;20052;-59
2023/05/24 09:28:43;;;;;;;11.10;5.28;;;19.30;60.60;;;;;;10427053;28;20041;-58
2023/05/24 09:33:48;;;;;;;14.63;5.53;;;19.30;60.70;;;;;;10417542;28;20017;-58
2023/05/24 09:39:09;;;;;;;7.90;5.25;;;19.30;60.90;;;;;;10446712;28;20021;-57
2023/05/24 09:44:13;;;;;;;7.93;4.00;;;19.40;61.50;;;;;;10437250;28;20059;-56
2023/05/24 09:49:14;;;;;;;9.90;4.30;;;19.30;61.20;;;;;;10440678;28;20477;-58
2023/05/24 09:54:15;;;;;;;7.40;4.03;;;19.40;61.00;;;;;;10436947;28;20123;-55
2023/05/24 09:59:17;;;;;;;9.77;5.10;;;19.40;61.40;;;;;;10421957;28;20048;-53
2023/05/24 10:04:18;;;;;;;13.77;4.18;;;19.30;61.40;;;;;;10446385;28;20356;-58
2023/05/24 10:09:19;;;;;;;8.75;4.57;;;19.30;61.40;;;;;;10435099;28;20036;-57
2023/05/24 10:14:21;;;;;;;9.43;4.85;;;19.40;61.60;;;;;;10405704;28;20038;-58
2023/05/24 10:19:22;;;;;;;9.52;3.90;;;19.50;61.50;;;;;;10441091;28;20048;-57
2023/05/24 10:24:28;;;;;;;7.55;4.00;;;19.50;61.50;;;;;;10442578;28;20032;-59
2023/05/24 10:29:52;;;;;;;10.90;4.38;;;19.40;61.70;;;;;;10441673;28;20065;-58
2023/05/24 10:34:53;;;;;;;9.35;4.47;;;19.30;62.00;;;;;;10437538;28;20017;-57
2023/05/24 10:39:54;;;;;;;8.23;4.07;;;19.30;62.20;;;;;;10446319;28;20028;-58
2023/05/24 10:44:56;;;;;;;11.00;4.05;;;19.30;62.50;;;;;;10442453;28;20035;-55
2023/05/24 10:49:58;;;;;;;9.63;3.70;;;19.30;62.20;;;;;;10435948;28;20037;-56
2023/05/24 10:55:04;;;;;;;9.23;3.63;;;19.30;62.50;;;;;;10416360;28;21653;-57
2023/05/24 11:00:26;;;;;;;9.98;3.55;;;19.30;62.40;;;;;;10443988;28;20116;-59
2023/05/24 11:05:49;;;;;;;8.15;3.95;;;19.20;62.40;;;;;;10436686;28;20480;-57
2023/05/24 11:10:50;;;;;;;7.82;3.55;;;19.20;62.40;;;;;;10438572;28;20461;-57
2023/05/24 11:15:51;;;;;;;10.55;3.55;;;19.10;62.50;;;;;;10441263;28;20099;-57
2023/05/24 11:20:51;;;;;;;10.23;4.15;;;19.20;62.50;;;;;;10441748;28;20239;-58
2023/05/24 11:25:52;;;;;;;6.25;2.90;;;19.30;62.20;;;;;;10439427;28;20448;-58
2023/05/24 11:30:53;;;;;;;12.18;3.25;;;19.20;61.90;;;;;;10427244;28;20144;-57
2023/05/24 11:35:55;;;;;;;8.80;3.00;;;19.20;61.90;;;;;;10444887;28;20472;-57
2023/05/24 11:40:57;;;;;;;8.93;3.38;;;19.20;62.00;;;;;;10452166;28;20644;-57
2023/05/24 11:45:58;;;;;;;14.30;4.47;;;19.10;62.00;;;;;;10452197;28;20021;-54
2023/05/24 11:50:59;;;;;;;14.98;3.75;;;19.10;61.90;;;;;;10418243;28;20026;-58
2023/05/24 11:56:00;;;;;;;7.28;3.13;;;19.10;61.90;;;;;;10410424;28;20097;-58
2023/05/24 12:01:02;;;;;;;6.90;3.03;;;19.00;61.90;;;;;;10410550;28;20025;-55
2023/05/24 12:06:02;;;;;;;8.18;3.40;;;19.00;61.80;;;;;;10409400;28;20109;-58
2023/05/24 12:11:04;;;;;;;6.65;3.45;;;19.10;61.60;;;;;;10406827;28;20021;-57
2023/05/24 12:16:05;;;;;;;6.88;3.13;;;19.10;61.70;;;;;;10427568;28;20079;-58
2023/05/24 12:21:10;;;;;;;10.23;3.33;;;19.10;61.50;;;;;;10452393;28;20029;-56
2023/05/24 12:26:13;;;;;;;28.55;6.50;;;19.20;61.30;;;;;;10453041;28;20023;-57
2023/05/24 12:31:13;;;;;;;18.92;4.88;;;19.20;61.60;;;;;;10452793;28;20462;-56
2023/05/24 12:36:16;;;;;;;23.67;5.38;;;19.20;61.80;;;;;;10453359;28;20097;-57
2023/05/24 12:41:17;;;;;;;17.88;4.78;;;19.30;61.70;;;;;;10450505;28;20419;-57
2023/05/24 12:46:18;;;;;;;14.68;5.00;;;19.20;61.90;;;;;;10447460;28;20033;-56
2023/05/24 12:51:18;;;;;;;14.57;4.43;;;19.20;62.00;;;;;;10446922;28;20013;-55
2023/05/24 12:56:19;;;;;;;20.30;7.28;;;19.20;61.90;;;;;;10446479;28;20056;-56
2023/05/24 13:01:20;;;;;;;17.52;5.38;;;19.20;61.90;;;;;;10446830;28;20100;-56
2023/05/24 13:06:21;;;;;;;14.52;4.68;;;19.10;62.00;;;;;;10449278;28;20453;-56
2023/05/24 13:11:23;;;;;;;14.27;4.75;;;19.10;62.00;;;;;;10448437;28;20051;-55
2023/05/24 13:16:25;;;;;;;11.98;3.70;;;19.10;62.00;;;;;;10449351;28;20067;-58
2023/05/24 13:21:26;;;;;;;7.85;3.45;;;19.10;62.00;;;;;;10448372;28;20024;-56
2023/05/24 13:26:27;;;;;;;11.15;3.40;;;19.10;62.00;;;;;;10448216;28;20031;-57
2023/05/24 13:31:27;;;;;;;11.65;3.55;;;19.00;62.10;;;;;;10448159;28;20017;-57
2023/05/24 13:36:28;;;;;;;7.53;3.55;;;19.00;62.20;;;;;;10449256;28;20100;-57
2023/05/24 13:41:30;;;;;;;11.55;4.07;;;19.00;62.10;;;;;;10448328;28;20017;-57
2023/05/24 13:46:31;;;;;;;7.75;3.63;;;19.00;62.10;;;;;;10447748;28;20486;-54
2023/05/24 13:51:32;;;;;;;7.00;3.53;;;18.90;62.10;;;;;;10447429;28;20028;-56
2023/05/24 13:56:33;;;;;;;7.18;3.17;;;18.90;62.10;;;;;;10445987;28;20029;-57
2023/05/24 14:01:36;;;;;;;8.63;3.08;;;18.90;62.10;;;;;;10447032;28;20036;-57
2023/05/24 14:06:37;;;;;;;9.70;3.95;;;19.00;62.10;;;;;;10446259;28;20044;-55
2023/05/24 14:11:37;;;;;;;7.38;2.72;;;18.90;62.10;;;;;;10445406;28;20040;-54
2023/05/24 14:16:38;;;;;;;5.93;2.70;;;18.90;62.20;;;;;;10445874;28;20530;-58
2023/05/24 14:21:40;;;;;;;5.88;2.97;;;18.90;62.30;;;;;;10446324;28;20109;-58
2023/05/24 14:26:41;;;;;;;9.77;2.95;;;18.80;62.30;;;;;;10446452;28;20086;-57
2023/05/24 14:31:42;;;;;;;8.27;3.42;;;18.80;62.30;;;;;;10445727;28;20017;-55
2023/05/24 14:36:44;;;;;;;6.88;2.88;;;18.80;62.30;;;;;;10445802;28;20029;-55
2023/05/24 14:41:44;;;;;;;10.55;3.60;;;18.80;62.50;;;;;;10445765;28;20108;-55
2023/05/24 14:46:45;;;;;;;7.13;2.90;;;18.80;62.50;;;;;;10446093;28;20558;-57
2023/05/24 14:51:50;;;;;;;6.95;3.13;;;18.80;62.60;;;;;;10420392;28;20056;-57
2023/05/24 14:56:50;;;;;;;6.65;2.47;;;18.80;62.30;;;;;;10434376;28;20460;-57
2023/05/24 15:01:51;;;;;;;7.50;2.92;;;18.80;62.30;;;;;;10447134;28;20108;-57
2023/05/24 15:06:52;;;;;;;10.77;3.22;;;18.80;62.20;;;;;;10446579;28;20520;-58
2023/05/24 15:11:52;;;;;;;14.27;4.85;;;18.80;62.10;;;;;;10446426;28;20045;-58
2023/05/24 15:16:53;;;;;;;15.18;5.03;;;18.80;62.60;;;;;;10444333;28;20052;-58
2023/05/24 15:21:54;;;;;;;26.50;5.95;;;18.80;62.80;;;;;;10442302;28;20055;-58
2023/05/24 15:26:54;;;;;;;23.50;5.82;;;18.90;62.80;;;;;;10434029;28;20261;-57
2023/05/24 15:31:57;;;;;;;92.45;45.90;;;18.90;63.60;;;;;;10444394;28;20053;-58
2023/05/24 15:36:58;;;;;;;41.72;16.60;;;19.10;66.90;;;;;;10433164;28;20029;-57
2023/05/24 15:41:58;;;;;;;31.67;9.82;;;19.00;65.10;;;;;;10404419;28;20480;-58
2023/05/24 15:46:59;;;;;;;32.40;9.18;;;19.00;68.10;;;;;;10404990;28;20117;-57
2023/05/24 15:52:00;;;;;;;35.97;8.80;;;19.10;66.80;;;;;;10417938;28;20104;-58
2023/05/24 15:57:01;;;;;;;27.15;8.35;;;19.20;65.20;;;;;;10405248;28;20221;-58
2023/05/24 16:02:02;;;;;;;34.83;9.43;;;19.10;63.90;;;;;;10404812;28;20024;-57
2023/05/24 16:07:02;;;;;;;28.70;7.93;;;19.10;64.50;;;;;;10417711;28;20441;-58
2023/05/24 16:12:04;;;;;;;24.27;6.90;;;19.10;64.70;;;;;;10441934;28;20021;-57
2023/05/24 16:17:05;;;;;;;29.52;8.18;;;19.00;64.80;;;;;;10445455;28;20400;-58
2023/05/24 16:22:06;;;;;;;24.70;7.70;;;19.00;64.80;;;;;;10449676;28;20025;-57
2023/05/24 16:27:08;;;;;;;21.17;7.25;;;19.00;64.90;;;;;;10453197;28;20499;-57
2023/05/24 16:32:08;;;;;;;32.60;8.32;;;18.90;65.00;;;;;;10451837;28;20028;-58
2023/05/24 16:37:09;;;;;;;24.40;7.95;;;18.90;65.10;;;;;;10453192;28;20100;-58
2023/05/24 16:42:10;;;;;;;19.15;6.80;;;19.00;65.30;;;;;;10452350;28;20031;-58
2023/05/24 16:47:10;;;;;;;22.55;7.18;;;18.90;65.40;;;;;;10452030;28;20067;-58
2023/05/24 16:52:11;;;;;;;17.58;5.30;;;18.90;65.50;;;;;;10452453;28;20675;-59
2023/05/24 16:57:11;;;;;;;23.85;6.80;;;18.90;65.50;;;;;;10433859;28;20474;-58
2023/05/24 17:02:12;;;;;;;30.17;7.82;;;19.00;65.20;;;;;;10412607;28;20125;-59
2023/05/24 17:07:13;;;;;;;20.98;5.72;;;19.00;65.50;;;;;;10451062;28;20029;-57
2023/05/24 17:12:14;;;;;;;28.58;7.35;;;19.00;65.40;;;;;;10451003;28;20013;-57
2023/05/24 17:17:15;;;;;;;40.85;8.10;;;19.00;65.40;;;;;;10438955;28;20049;-56
2023/05/24 17:22:15;;;;;;;34.85;7.30;;;18.90;65.50;;;;;;10450189;28;20013;-58
2023/05/24 17:27:16;;;;;;;18.85;6.57;;;18.90;65.40;;;;;;10449239;28;20076;-59
2023/05/24 17:32:17;;;;;;;26.75;6.95;;;18.90;65.50;;;;;;10444064;28;20126;-58
2023/05/24 17:37:17;;;;;;;18.55;6.28;;;18.90;65.40;;;;;;10443851;28;20033;-59
2023/05/24 17:42:18;;;;;;;19.33;6.05;;;18.90;65.20;;;;;;10441533;28;20060;-58
2023/05/24 17:47:19;;;;;;;15.43;5.22;;;18.90;65.20;;;;;;10414096;28;20580;-59
2023/05/24 17:52:20;;;;;;;18.95;5.95;;;18.90;65.20;;;;;;10436708;28;20021;-57
2023/05/24 17:57:20;;;;;;;17.15;4.22;;;19.00;65.60;;;;;;10448980;28;20617;-58
2023/05/24 18:02:21;;;;;;;16.15;5.18;;;19.00;65.70;;;;;;10447226;28;20372;-57
2023/05/24 18:07:22;;;;;;;15.90;6.05;;;19.00;65.60;;;;;;10426847;28;20132;-58
2023/05/24 18:12:24;;;;;;;14.80;5.40;;;19.00;65.90;;;;;;10407567;28;20064;-62
2023/05/24 18:17:26;;;;;;;21.23;4.35;;;19.10;65.80;;;;;;10433609;28;20129;-56
2023/05/24 18:22:26;;;;;;;13.38;3.90;;;19.10;65.60;;;;;;10446109;28;20023;-57
2023/05/24 18:27:27;;;;;;;16.90;4.40;;;19.10;65.50;;;;;;10440491;28;20573;-58
2023/05/24 18:32:27;;;;;;;15.10;5.30;;;19.00;65.60;;;;;;10444845;28;20570;-57
2023/05/24 18:37:28;;;;;;;8.90;3.58;;;19.00;65.10;;;;;;10420689;28;20120;-57
2023/05/24 18:42:29;;;;;;;11.23;5.32;;;18.90;65.20;;;;;;10441613;28;20038;-58
2023/05/24 18:47:30;;;;;;;13.65;4.00;;;18.80;65.80;;;;;;10446361;28;20068;-58
2023/05/24 18:52:30;;;;;;;11.70;3.83;;;18.80;65.80;;;;;;10427922;28;20500;-58
2023/05/24 18:57:32;;;;;;;10.13;4.10;;;18.80;65.80;;;;;;10406222;28;20057;-58
2023/05/24 19:02:37;;;;;;;12.80;5.80;;;18.70;65.10;;;;;;10422078;28;20029;-54
2023/05/24 19:07:38;;;;;;;13.00;3.33;;;18.70;65.40;;;;;;10402759;28;20026;-57
2023/05/24 19:12:39;;;;;;;10.85;3.95;;;18.70;65.40;;;;;;10415231;28;20514;-53
2023/05/24 19:17:40;;;;;;;10.82;3.17;;;18.70;65.40;;;;;;10436984;28;20128;-58
2023/05/24 19:22:40;;;;;;;7.50;4.00;;;18.70;65.50;;;;;;10444745;28;20489;-57
2023/05/24 19:27:41;;;;;;;8.68;2.80;;;18.70;65.50;;;;;;10446208;28;20065;-58
2023/05/24 19:32:42;;;;;;;7.90;2.90;;;18.60;65.30;;;;;;10446466;28;20579;-58
2023/05/24 19:37:43;;;;;;;8.07;2.80;;;18.60;65.30;;;;;;10446636;28;20187;-58
2023/05/24 19:42:43;;;;;;;10.13;2.70;;;18.60;65.30;;;;;;10446117;28;20021;-58
2023/05/24 19:47:44;;;;;;;8.10;3.30;;;18.60;65.30;;;;;;10446183;28;20043;-58
2023/05/24 19:52:45;;;;;;;7.45;2.67;;;18.60;65.20;;;;;;10446236;28;20010;-58
2023/05/24 19:57:45;;;;;;;8.70;3.08;;;18.60;65.30;;;;;;10451225;28;20061;-58
2023/05/24 20:02:46;;;;;;;9.32;3.35;;;18.50;65.10;;;;;;10454108;28;20028;-58
2023/05/24 20:07:47;;;;;;;7.80;3.20;;;18.50;65.10;;;;;;10453543;28;20774;-58
2023/05/24 20:12:47;;;;;;;7.07;2.90;;;18.50;65.10;;;;;;10428578;28;20148;-58
2023/05/24 20:17:48;;;;;;;5.93;2.40;;;18.50;65.10;;;;;;10412304;28;20102;-58
2023/05/24 20:22:49;;;;;;;5.28;2.40;;;18.50;65.10;;;;;;10453284;28;20025;-58
2023/05/24 20:27:49;;;;;;;6.47;2.78;;;18.40;65.00;;;;;;10452739;28;20439;-58
2023/05/24 20:32:50;;;;;;;5.47;3.13;;;18.50;65.00;;;;;;10452923;28;20057;-54
2023/05/24 20:37:51;;;;;;;7.90;2.95;;;18.40;64.90;;;;;;10453453;28;20044;-59
2023/05/24 20:42:52;;;;;;;9.82;3.35;;;18.40;64.90;;;;;;10451872;28;20031;-58
2023/05/24 20:47:53;;;;;;;6.85;2.38;;;18.40;64.90;;;;;;10452075;28;20090;-56
2023/05/24 20:52:54;;;;;;;7.10;2.70;;;18.40;64.80;;;;;;10452494;28;20203;-58
2023/05/24 20:57:55;;;;;;;6.38;2.80;;;18.40;64.70;;;;;;10451131;28;20539;-57
2023/05/24 21:02:55;;;;;;;7.38;2.97;;;18.40;64.70;;;;;;10451166;28;20450;-58
2023/05/24 21:07:56;;;;;;;6.28;2.22;;;18.40;64.80;;;;;;10450336;28;20058;-58
2023/05/24 21:12:57;;;;;;;6.68;2.28;;;18.40;64.80;;;;;;10450877;28;20083;-56
2023/05/24 21:17:57;;;;;;;7.68;3.10;;;18.40;64.80;;;;;;10450954;28;20388;-57
2023/05/24 21:22:59;;;;;;;5.35;2.50;;;18.40;64.70;;;;;;10450863;28;20358;-58
2023/05/24 21:27:59;;;;;;;4.78;2.40;;;18.30;64.60;;;;;;10450804;28;20036;-58
2023/05/24 21:33:00;;;;;;;6.10;2.33;;;18.30;64.50;;;;;;10450837;28;20021;-58
2023/05/24 21:38:01;;;;;;;7.10;2.95;;;18.30;64.50;;;;;;10450287;28;20082;-58
2023/05/24 21:43:03;;;;;;;6.72;2.28;;;18.30;64.50;;;;;;10449712;28;20064;-57
2023/05/24 21:48:05;;;;;;;6.75;2.50;;;18.30;64.50;;;;;;10450501;28;20068;-58
2023/05/24 21:53:05;;;;;;;5.90;2.45;;;18.30;64.50;;;;;;10449542;28;20036;-58
2023/05/24 21:58:06;;;;;;;5.22;2.95;;;18.30;64.50;;;;;;10449582;28;20578;-57
2023/05/24 22:03:07;;;;;;;6.57;3.03;;;18.30;64.50;;;;;;10449140;28;20593;-58
2023/05/24 22:08:07;;;;;;;5.65;3.00;;;18.30;64.40;;;;;;10447845;28;20071;-56
2023/05/24 22:13:08;;;;;;;5.03;2.40;;;18.20;64.40;;;;;;10448918;28;20091;-58
2023/05/24 22:18:09;;;;;;;5.93;2.55;;;18.30;64.40;;;;;;10448411;28;20045;-58
2023/05/24 22:23:10;;;;;;;6.03;2.55;;;18.20;64.30;;;;;;10448139;28;20100;-57
2023/05/24 22:28:11;;;;;;;6.80;3.08;;;18.20;64.30;;;;;;10447415;28;20090;-56
2023/05/24 22:33:12;;;;;;;10.43;3.25;;;18.20;64.20;;;;;;10447745;28;20433;-59
2023/05/24 22:38:13;;;;;;;10.13;4.05;;;18.20;64.10;;;;;;10447563;28;20013;-57
2023/05/24 22:43:14;;;;;;;8.10;2.35;;;18.20;64.20;;;;;;10447829;28;20060;-58
2023/05/24 22:48:14;;;;;;;4.38;2.67;;;18.20;64.10;;;;;;10447323;28;20064;-58
2023/05/24 22:53:15;;;;;;;4.60;2.50;;;18.10;64.10;;;;;;10447499;28;20422;-58
2023/05/24 22:58:22;;;;;;;4.68;2.40;;;18.20;64.10;;;;;;10434001;28;20384;-57
2023/05/24 23:03:22;;;;;;;4.95;2.15;;;18.20;64.10;;;;;;10405762;28;20037;-57
2023/05/24 23:08:24;;;;;;;6.00;3.03;;;18.10;64.00;;;;;;10408830;28;20108;-57
2023/05/24 23:13:31;;;;;;;7.45;3.05;;;18.10;64.00;;;;;;10428870;28;20025;-58
2023/05/24 23:18:32;;;;;;;5.70;2.05;;;18.10;64.00;;;;;;10411827;28;20107;-59
2023/05/24 23:23:33;;;;;;;6.63;2.22;;;18.10;63.90;;;;;;10447078;28;20024;-57
2023/05/24 23:28:34;;;;;;;6.05;2.55;;;18.10;63.90;;;;;;10446314;28;20024;-58
2023/05/24 23:33:34;;;;;;;5.03;2.65;;;18.10;63.90;;;;;;10444329;28;20025;-58
2023/05/24 23:38:35;;;;;;;4.43;2.53;;;18.10;63.90;;;;;;10459623;28;20603;-56
2023/05/24 23:43:36;;;;;;;6.95;3.08;;;18.10;63.90;;;;;;10445842;28;20053;-58
2023/05/24 23:48:37;;;;;;;5.20;2.25;;;18.00;63.80;;;;;;10444774;28;20126;-56
2023/05/24 23:53:37;;;;;;;4.47;2.70;;;18.00;64.40;;;;;;10445998;28;20059;-58
2023/05/24 23:58:38;;;;;;;7.38;3.33;;;18.00;63.80;;;;;;10429108;28;20060;-57
